»·PEaware :: SWA1889 KSAN-KSFO

SWA1889 :: KSAN-KSFO

FLIGHT INFORMATION

Flight Status: Arrived
Operator:
Southwest Airlines
More flights by this operator :: More flights under this callsign
Pilot: Paul A. (20189)
Aircraft: BOEING 737-700
(B737)
More flights by this aircraft type
Origin: KSAN San Diego Intl-Lindbergh
United States
Destination: KSFO San Francisco Intl
United States
More flights between these airports :: More routes between these airports
Route: PADRZ2 IKAYE RIZIN SPLNT STOKD SERFR SERFR3
File this flight plan on PilotEdge
Remarks:
Altitude:
(Current/Filed)
32,000ft
Speed:
(Current/Filed)
455kts
Departed: 03-Nov-18 06:16 PM
Arrived: 03-Nov-18 07:24 PM
Distance/Time
Traveled:
388nm/1:07
Distance/Time
To Go:
Arrived

Flight Plot

Page will automatically refresh every two minutes.

Flight plan parsing failed; only flown route is shown


Map Options




Map Legend


Flown Route
Filed Route
Departure Airport
Arrival Airport
Navaid (VOR, NDB)
Fix

Horizontal Profiles

Position Reports

Time Latitude Longitude Heading Altitude Ground
Speed
03-Nov-18 17:47 32.733159 -117.195675 227 22ft 0kts
03-Nov-18 17:48 32.733159 -117.195675 227 22ft 0kts
03-Nov-18 17:49 32.733159 -117.195675 227 22ft 0kts
03-Nov-18 17:50 32.733159 -117.195675 227 23ft 0kts
03-Nov-18 17:51 32.733159 -117.195675 227 23ft 0kts
03-Nov-18 17:52 32.733159 -117.195675 227 23ft 0kts
03-Nov-18 17:53 32.733159 -117.195675 227 23ft 0kts
03-Nov-18 17:54 32.733159 -117.195675 227 23ft 0kts
03-Nov-18 17:55 32.733159 -117.195675 227 23ft 0kts
03-Nov-18 17:56 32.733159 -117.195675 227 23ft 0kts
03-Nov-18 17:57 32.733159 -117.195675 227 23ft 0kts
03-Nov-18 17:58 32.733159 -117.195675 227 23ft 0kts
03-Nov-18 17:59 32.733159 -117.195675 227 23ft 0kts
03-Nov-18 18:00 32.733159 -117.195675 227 23ft 0kts
03-Nov-18 18:01 32.733159 -117.195675 227 23ft 0kts
03-Nov-18 18:02 32.733159 -117.195675 227 23ft 0kts
03-Nov-18 18:03 32.733159 -117.195675 227 23ft 0kts
03-Nov-18 18:04 32.733159 -117.195675 227 23ft 0kts
03-Nov-18 18:05 32.733612 -117.195209 195 23ft 2kts
03-Nov-18 18:06 32.733951 -117.195243 155 23ft 0kts
03-Nov-18 18:07 32.733951 -117.195243 155 23ft 0kts
03-Nov-18 18:08 32.733951 -117.195243 155 23ft 0kts
03-Nov-18 18:09 32.732626 -117.190050 105 23ft 20kts
03-Nov-18 18:10 32.731033 -117.183427 106 23ft 14kts
03-Nov-18 18:11 32.729740 -117.178137 106 23ft 13kts
03-Nov-18 18:12 32.729512 -117.176835 79 23ft 0kts
03-Nov-18 18:13 32.729512 -117.176834 79 23ft 0kts
03-Nov-18 18:14 32.729512 -117.176832 79 23ft 0kts
03-Nov-18 18:15 32.729512 -117.176830 79 23ft 0kts
03-Nov-18 18:16 32.729513 -117.176829 79 23ft 0kts
03-Nov-18 18:17 32.729513 -117.176827 79 23ft 0kts
03-Nov-18 18:18 32.729513 -117.176825 79 23ft 0kts
03-Nov-18 18:19 32.733010 -117.187361 286 26ft 153kts
03-Nov-18 18:20 32.754158 -117.238025 304 3425ft 196kts
03-Nov-18 18:21 32.790763 -117.303033 303 5587ft 253kts
03-Nov-18 18:22 32.833567 -117.371224 308 8588ft 262kts
03-Nov-18 18:23 32.878402 -117.440537 308 11544ft 272kts
03-Nov-18 18:24 32.930304 -117.521260 309 13246ft 344kts
03-Nov-18 18:25 32.990168 -117.614444 309 16235ft 360kts
03-Nov-18 18:26 33.052071 -117.711140 311 19058ft 373kts
03-Nov-18 18:27 33.129190 -117.796151 321 21490ft 384kts
03-Nov-18 18:28 33.211713 -117.881419 318 22998ft 397kts
03-Nov-18 18:29 33.289871 -117.975465 316 24052ft 401kts
03-Nov-18 18:30 33.369814 -118.071905 317 25888ft 413kts
03-Nov-18 18:31 33.451979 -118.170709 317 27600ft 424kts
03-Nov-18 18:32 33.536158 -118.271665 317 29067ft 434kts
03-Nov-18 18:33 33.616765 -118.368787 318 31001ft 428kts
03-Nov-18 18:34 33.698034 -118.467038 318 32007ft 430kts
03-Nov-18 18:35 33.778563 -118.564689 318 32015ft 426kts
03-Nov-18 18:36 33.862126 -118.666323 318 32006ft 428kts
03-Nov-18 18:37 33.946034 -118.768463 318 32007ft 429kts
03-Nov-18 18:38 34.029658 -118.870783 318 32009ft 425kts
03-Nov-18 18:39 34.107233 -118.966159 317 32010ft 426kts
03-Nov-18 18:40 34.177729 -119.076936 305 32010ft 433kts
03-Nov-18 18:41 34.241053 -119.200455 306 32002ft 434kts
03-Nov-18 18:42 34.305043 -119.324501 305 32008ft 435kts
03-Nov-18 18:43 34.368640 -119.449095 305 32018ft 436kts
03-Nov-18 18:44 34.437146 -119.564266 316 32017ft 430kts
03-Nov-18 18:45 34.520897 -119.667668 317 32017ft 429kts
03-Nov-18 18:46 34.604538 -119.771014 317 32020ft 429kts
03-Nov-18 18:47 34.685879 -119.871523 317 32021ft 429kts
03-Nov-18 18:48 34.769513 -119.975070 317 32043ft 429kts
03-Nov-18 18:49 34.847751 -120.072407 317 32049ft 431kts
03-Nov-18 18:50 34.931441 -120.176583 317 32064ft 430kts
03-Nov-18 18:51 35.011042 -120.276435 317 32066ft 429kts
03-Nov-18 18:51 35.080458 -120.363738 316 32066ft 429kts
03-Nov-18 18:53 35.182156 -120.479176 320 32062ft 428kts
03-Nov-18 18:53 35.255209 -120.560773 320 32061ft 427kts
03-Nov-18 18:55 35.354914 -120.672625 319 32063ft 427kts
03-Nov-18 18:55 35.427626 -120.754895 319 32073ft 427kts
03-Nov-18 18:57 35.530224 -120.862632 325 32086ft 425kts
03-Nov-18 18:57 35.609017 -120.935088 325 32090ft 425kts
03-Nov-18 18:58 35.703538 -121.022950 324 32098ft 425kts
03-Nov-18 18:59 35.797982 -121.110939 324 32101ft 426kts
03-Nov-18 19:00 35.892601 -121.199146 324 32102ft 426kts
03-Nov-18 19:01 35.986852 -121.287800 324 32102ft 426kts
03-Nov-18 19:02 36.081145 -121.375667 327 32102ft 423kts
03-Nov-18 19:03 36.180602 -121.452785 329 32105ft 423kts
03-Nov-18 19:04 36.279823 -121.529693 328 29688ft 421kts
03-Nov-18 19:05 36.377007 -121.605900 328 26994ft 406kts
03-Nov-18 19:06 36.470744 -121.679760 329 24457ft 389kts
03-Nov-18 19:07 36.557808 -121.748348 328 22728ft 363kts
03-Nov-18 19:08 36.641811 -121.814920 328 20567ft 351kts
03-Nov-18 19:09 36.723125 -121.879068 331 18486ft 340kts
03-Nov-18 19:10 36.811284 -121.913427 345 16657ft 326kts
03-Nov-18 19:11 36.898647 -121.938044 346 14700ft 318kts
03-Nov-18 19:12 36.980103 -121.963059 342 13968ft 275kts
03-Nov-18 19:13 37.051134 -121.991331 342 12659ft 261kts
03-Nov-18 19:14 37.118005 -122.017684 342 11329ft 262kts
03-Nov-18 19:15 37.187738 -122.045096 343 9932ft 264kts
03-Nov-18 19:16 37.257071 -122.072357 344 8532ft 258kts
03-Nov-18 19:17 37.325140 -122.099096 343 7132ft 252kts
03-Nov-18 19:18 37.388391 -122.123634 345 5781ft 235kts
03-Nov-18 19:19 37.441271 -122.141541 345 4655ft 195kts
03-Nov-18 19:20 37.489647 -122.158122 345 3519ft 170kts
03-Nov-18 19:21 37.531758 -122.176112 315 3089ft 169kts
03-Nov-18 19:23 37.556309 -122.226539 300 2317ft 162kts
03-Nov-18 19:24 37.577084 -122.275824 299 1449ft 147kts
03-Nov-18 19:25 37.595090 -122.318303 299 709ft 134kts
03-Nov-18 19:26 37.611989 -122.359049 296 68ft 127kts
03-Nov-18 19:27 37.616898 -122.372022 212 21ft 4kts
03-Nov-18 19:28 37.616840 -122.374294 300 21ft 13kts
03-Nov-18 19:29 37.617960 -122.377715 283 21ft 12kts
03-Nov-18 19:30 37.615436 -122.380441 205 21ft 14kts
03-Nov-18 19:31 37.611699 -122.382913 215 21ft 12kts
03-Nov-18 19:32 37.612532 -122.384674 5 21ft 0kts

Navigation Log

Ident Type
Flight plan parsing failed, navigation log unavailable